Time;durP1;ratioP1;P1;durP2;ratioP2;P2;SDS_P1;SDS_P2;PMS_P1;PMS_P2;Temp;Humidity;BMP_temperature;BMP_pressure;BME280_temperature;BME280_humidity;BME280_pressure;Samples;Min_cycle;Max_cycle;Signal;HPM_P1;HPM_P2
2022/04/28 00:02:19;;;;;;;0.60;0.60;;;15.70;78.00;;;;;;5013540;28;20293;-72
2022/04/28 00:04:45;;;;;;;1.35;0.82;;;15.70;78.00;;;;;;5013411;28;20184;-72
2022/04/28 00:07:12;;;;;;;0.80;0.80;;;15.70;77.70;;;;;;5014089;28;20180;-73
2022/04/28 00:09:37;;;;;;;0.75;0.60;;;15.70;78.20;;;;;;5011648;28;20185;-73
2022/04/28 00:12:03;;;;;;;0.60;0.60;;;15.70;78.10;;;;;;5012331;28;20176;-74
2022/04/28 00:14:30;;;;;;;0.60;0.60;;;15.70;78.20;;;;;;5007041;28;20526;-73
2022/04/28 00:16:57;;;;;;;0.57;0.57;;;15.70;77.70;;;;;;5009821;28;20239;-72
2022/04/28 00:19:22;;;;;;;0.85;0.73;;;15.70;77.70;;;;;;5043127;28;20599;-73
2022/04/28 00:21:48;;;;;;;0.65;0.60;;;15.70;77.30;;;;;;5009907;28;20192;-75
2022/04/28 00:24:14;;;;;;;1.38;0.80;;;15.80;77.30;;;;;;5008624;28;20189;-73
2022/04/28 00:26:39;;;;;;;1.13;0.70;;;15.80;77.10;;;;;;5012959;28;20284;-73
2022/04/28 00:29:05;;;;;;;2.70;0.68;;;15.80;77.00;;;;;;5009545;28;20268;-73
2022/04/28 00:31:31;;;;;;;0.70;0.70;;;15.80;76.80;;;;;;5021950;28;20214;-74
2022/04/28 00:33:56;;;;;;;1.60;0.93;;;15.80;76.70;;;;;;5007948;28;20177;-72
2022/04/28 00:36:22;;;;;;;2.47;0.90;;;15.70;76.40;;;;;;5011774;28;20642;-73
2022/04/28 00:38:48;;;;;;;2.92;0.52;;;15.70;75.60;;;;;;5007930;28;20437;-73
2022/04/28 00:41:13;;;;;;;0.90;0.90;;;15.70;75.60;;;;;;5014700;28;20264;-73
2022/04/28 00:43:52;;;;;;;1.05;0.90;;;15.70;75.40;;;;;;5007809;28;20670;-73
2022/04/28 00:46:21;;;;;;;0.65;0.65;;;15.70;75.70;;;;;;5010897;28;20185;-73
2022/04/28 00:51:34;;;;;;;0.68;0.68;;;15.60;76.40;;;;;;5013491;28;20199;-72
2022/04/28 00:54:01;;;;;;;0.82;0.50;;;15.60;77.00;;;;;;5009591;28;20795;-72
2022/04/28 00:56:28;;;;;;;0.60;0.60;;;15.60;76.70;;;;;;5008793;28;20177;-73
2022/04/28 00:58:55;;;;;;;2.20;0.70;;;15.50;76.80;;;;;;5008408;28;20216;-74
2022/04/28 01:01:21;;;;;;;4.28;0.85;;;15.50;76.50;;;;;;5014344;28;20189;-72
2022/04/28 01:03:48;;;;;;;0.95;0.95;;;15.50;77.50;;;;;;5007435;28;20181;-74
2022/04/28 01:06:15;;;;;;;1.08;0.80;;;15.50;77.20;;;;;;5010500;28;20235;-73
2022/04/28 01:08:42;;;;;;;1.38;0.88;;;15.40;77.30;;;;;;5012184;28;20193;-74
2022/04/28 01:11:08;;;;;;;1.10;0.70;;;15.40;77.30;;;;;;5013221;28;20177;-73
2022/04/28 01:13:34;;;;;;;0.70;0.70;;;15.40;77.00;;;;;;5013657;28;20243;-73
2022/04/28 01:16:00;;;;;;;1.25;0.70;;;15.30;76.90;;;;;;5008085;28;20632;-72
2022/04/28 01:18:26;;;;;;;0.82;0.82;;;15.30;77.40;;;;;;5010426;28;20215;-74
2022/04/28 01:20:52;;;;;;;1.85;0.77;;;15.30;77.30;;;;;;5012680;28;20180;-72
2022/04/28 01:23:18;;;;;;;0.95;0.93;;;15.30;76.80;;;;;;5042102;28;20181;-74
2022/04/28 01:25:44;;;;;;;1.25;1.25;;;15.30;77.20;;;;;;5008359;28;20182;-73
2022/04/28 01:28:10;;;;;;;2.88;1.58;;;15.30;78.60;;;;;;5011863;28;20276;-73
2022/04/28 01:30:37;;;;;;;7.32;2.20;;;15.30;78.90;;;;;;5012602;28;20192;-74
2022/04/28 01:33:04;;;;;;;1.40;1.40;;;15.30;79.20;;;;;;5012214;28;20343;-72
2022/04/28 01:35:31;;;;;;;1.83;1.73;;;15.30;79.40;;;;;;5011719;28;20180;-72
2022/04/28 01:37:57;;;;;;;4.15;1.90;;;15.20;80.20;;;;;;5009028;28;21041;-73
2022/04/28 01:40:23;;;;;;;1.27;1.27;;;15.10;80.00;;;;;;5013262;28;20335;-72
2022/04/28 01:42:50;;;;;;;4.80;1.88;;;15.10;80.20;;;;;;5012487;28;20575;-73
2022/04/28 01:45:16;;;;;;;1.95;1.63;;;15.00;81.10;;;;;;5008804;28;20235;-72
2022/04/28 01:47:42;;;;;;;3.28;1.85;;;15.00;80.70;;;;;;5009867;28;20185;-73
2022/04/28 01:50:11;;;;;;;2.33;2.05;;;15.00;80.80;;;;;;5012509;28;20196;-72
2022/04/28 01:55:25;;;;;;;1.77;1.77;;;15.00;80.70;;;;;;5005421;28;20187;-73
2022/04/28 01:57:51;;;;;;;2.25;1.85;;;14.90;81.20;;;;;;5010660;28;20188;-71
2022/04/28 02:00:17;;;;;;;2.00;1.90;;;14.90;81.80;;;;;;5010770;28;20179;-73
2022/04/28 02:02:43;;;;;;;2.58;1.85;;;14.90;81.50;;;;;;5009107;28;20242;-74
2022/04/28 02:05:10;;;;;;;1.70;1.42;;;14.80;81.90;;;;;;5012937;28;20188;-73
2022/04/28 02:07:37;;;;;;;5.18;1.63;;;14.80;81.70;;;;;;5010548;28;20208;-73
2022/04/28 02:10:04;;;;;;;1.27;1.27;;;14.80;82.20;;;;;;5011120;28;20176;-72
2022/04/28 02:12:30;;;;;;;1.77;1.70;;;14.70;82.00;;;;;;5007392;28;20632;-72
2022/04/28 02:14:56;;;;;;;2.08;2.08;;;14.70;81.80;;;;;;5014169;28;20185;-74
2022/04/28 02:17:25;;;;;;;2.70;1.83;;;14.70;82.10;;;;;;5008512;28;20199;-72
2022/04/28 02:19:51;;;;;;;1.98;1.60;;;14.70;82.00;;;;;;5005281;28;20223;-72
2022/04/28 02:22:18;;;;;;;3.00;1.92;;;14.80;82.40;;;;;;5008541;28;20211;-71
2022/04/28 02:24:46;;;;;;;1.80;1.70;;;14.80;82.10;;;;;;5007710;28;20268;-74
2022/04/28 02:27:11;;;;;;;1.80;1.70;;;14.80;82.40;;;;;;5040802;28;20602;-72
2022/04/28 02:29:37;;;;;;;3.35;1.60;;;14.80;82.20;;;;;;5009418;28;20180;-74
2022/04/28 02:32:03;;;;;;;2.13;1.95;;;14.80;82.20;;;;;;5040516;28;20185;-73
2022/04/28 02:34:29;;;;;;;3.22;1.67;;;14.80;82.20;;;;;;5006315;28;20688;-73
2022/04/28 02:36:56;;;;;;;1.83;1.65;;;14.70;82.60;;;;;;5013504;28;20458;-73
2022/04/28 02:39:24;;;;;;;1.40;1.38;;;14.70;82.70;;;;;;5042448;28;20217;-73
2022/04/28 02:41:50;;;;;;;2.00;1.50;;;14.70;82.70;;;;;;5007717;28;20188;-73
2022/04/28 02:44:16;;;;;;;4.30;1.40;;;14.70;83.20;;;;;;5017139;28;20176;-73
2022/04/28 02:46:43;;;;;;;1.30;1.30;;;14.70;83.00;;;;;;5008522;28;20180;-73
2022/04/28 02:49:12;;;;;;;1.25;1.10;;;14.60;84.00;;;;;;5041389;28;20185;-73
2022/04/28 02:51:39;;;;;;;1.25;1.23;;;14.50;83.80;;;;;;5010639;28;20311;-73
2022/04/28 02:54:05;;;;;;;2.03;1.30;;;14.50;84.60;;;;;;5012823;28;20188;-73
2022/04/28 02:56:32;;;;;;;1.88;1.23;;;14.50;84.00;;;;;;5008394;28;20185;-73
2022/04/28 02:58:58;;;;;;;1.67;1.52;;;14.50;84.70;;;;;;5010888;28;20221;-73
2022/04/28 03:01:24;;;;;;;1.42;1.20;;;14.40;84.70;;;;;;5008707;28;20187;-73
2022/04/28 03:03:50;;;;;;;2.35;1.50;;;14.40;84.80;;;;;;5011552;28;20205;-73
2022/04/28 03:11:46;;;;;;;1.50;1.48;;;14.40;84.40;;;;;;5005933;28;20246;-73
2022/04/28 03:14:12;;;;;;;1.45;1.45;;;14.40;84.60;;;;;;5007909;28;21223;-73
2022/04/28 03:16:40;;;;;;;2.38;1.33;;;14.40;84.60;;;;;;5013911;28;20195;-73
2022/04/28 03:19:06;;;;;;;1.98;1.17;;;14.40;84.30;;;;;;5008654;28;20224;-73
2022/04/28 03:21:32;;;;;;;6.30;1.33;;;14.40;84.70;;;;;;5012072;28;20184;-74
2022/04/28 03:23:58;;;;;;;1.35;1.25;;;14.40;84.80;;;;;;5016341;28;20940;-73
2022/04/28 03:26:24;;;;;;;1.40;1.40;;;14.40;84.70;;;;;;5013047;28;20188;-74
2022/04/28 03:28:50;;;;;;;1.75;1.65;;;14.40;84.30;;;;;;5013302;28;20299;-73
2022/04/28 03:31:16;;;;;;;3.03;1.60;;;14.40;84.90;;;;;;5010567;28;20200;-73
2022/04/28 03:33:41;;;;;;;1.63;1.52;;;14.40;84.70;;;;;;5012868;28;20259;-73
2022/04/28 03:38:52;;;;;;;1.63;1.50;;;14.40;84.80;;;;;;5016168;28;20224;-73
2022/04/28 03:41:18;;;;;;;3.10;2.20;;;14.40;84.90;;;;;;5017302;28;20267;-73
2022/04/28 03:43:44;;;;;;;2.38;2.17;;;14.40;85.50;;;;;;5012718;28;20222;-73
2022/04/28 03:46:11;;;;;;;2.00;2.00;;;14.40;85.60;;;;;;5017257;28;20187;-72
2022/04/28 03:48:37;;;;;;;2.17;1.92;;;14.40;85.00;;;;;;5012158;28;20180;-71
2022/04/28 03:51:04;;;;;;;2.42;2.33;;;14.40;85.20;;;;;;5009282;28;20177;-72
2022/04/28 03:53:30;;;;;;;2.30;2.22;;;14.30;85.60;;;;;;5015187;28;20896;-71
2022/04/28 03:55:57;;;;;;;2.33;2.15;;;14.40;85.40;;;;;;5008565;28;20243;-72
2022/04/28 03:58:25;;;;;;;2.38;2.28;;;14.40;85.40;;;;;;5007892;28;20208;-72
2022/04/28 04:00:51;;;;;;;3.03;2.83;;;14.40;85.80;;;;;;5042084;28;20327;-72
2022/04/28 04:03:19;;;;;;;2.83;2.72;;;14.30;86.10;;;;;;5014273;28;20177;-74
2022/04/28 04:05:45;;;;;;;2.60;2.50;;;14.20;87.30;;;;;;5014044;28;20187;-74
2022/04/28 04:08:11;;;;;;;2.70;2.60;;;14.20;87.50;;;;;;5014732;28;20185;-72
2022/04/28 04:10:37;;;;;;;2.70;2.60;;;14.20;86.70;;;;;;5008663;28;20177;-72
2022/04/28 04:13:03;;;;;;;3.13;2.58;;;14.20;87.60;;;;;;5008820;28;20863;-72
2022/04/28 04:15:29;;;;;;;2.42;2.33;;;14.10;86.80;;;;;;5011224;28;20637;-72
2022/04/28 04:17:54;;;;;;;3.03;2.72;;;14.20;86.90;;;;;;5015886;28;20196;-71
2022/04/28 04:20:20;;;;;;;2.85;2.70;;;14.20;87.20;;;;;;5009952;28;20188;-72
2022/04/28 04:22:46;;;;;;;2.17;2.17;;;14.10;87.80;;;;;;5010875;28;20185;-73
2022/04/28 04:25:12;;;;;;;2.40;2.30;;;14.10;87.50;;;;;;5016045;28;20574;-72
2022/04/28 04:27:37;;;;;;;2.90;2.80;;;14.00;87.70;;;;;;5012335;28;20191;-73
2022/04/28 04:32:17;;;;;;;2.83;2.60;;;14.10;87.80;;;;;;5006591;28;20323;-73
2022/04/28 04:32:50;;;;;;;2.90;2.80;;;14.10;88.00;;;;;;5011146;28;20185;-73
2022/04/28 04:35:17;;;;;;;2.65;2.45;;;14.00;87.70;;;;;;5010906;28;20191;-73
2022/04/28 04:37:43;;;;;;;2.03;1.98;;;14.00;87.50;;;;;;5013513;28;20776;-74
2022/04/28 04:40:11;;;;;;;1.75;1.75;;;14.00;87.50;;;;;;5019909;28;20654;-72
2022/04/28 04:42:37;;;;;;;2.65;1.67;;;14.00;87.50;;;;;;5012117;28;20220;-73
2022/04/28 04:45:03;;;;;;;1.67;1.67;;;13.90;88.10;;;;;;5045740;28;20184;-71
2022/04/28 04:47:29;;;;;;;1.48;1.40;;;13.90;87.80;;;;;;5016753;28;20263;-75
2022/04/28 04:49:54;;;;;;;1.25;1.20;;;13.90;88.00;;;;;;5010131;28;20184;-75
2022/04/28 04:52:20;;;;;;;1.23;1.23;;;13.90;87.80;;;;;;5007654;28;20188;-72
2022/04/28 04:54:46;;;;;;;0.63;0.63;;;13.80;87.80;;;;;;5009223;28;20235;-73
2022/04/28 04:57:13;;;;;;;0.50;0.50;;;13.70;88.00;;;;;;5010703;28;20710;-77
2022/04/28 04:59:39;;;;;;;1.38;0.70;;;13.50;88.10;;;;;;5041317;28;20224;-76
2022/04/28 05:02:04;;;;;;;1.55;0.90;;;13.50;87.60;;;;;;5007497;28;20207;-73
2022/04/28 05:04:30;;;;;;;1.90;0.30;;;13.50;87.20;;;;;;5040842;28;20219;-73
2022/04/28 05:06:56;;;;;;;0.30;0.30;;;13.40;87.70;;;;;;5010427;28;20670;-71
2022/04/28 05:09:21;;;;;;;0.40;0.40;;;13.30;87.90;;;;;;5003492;28;20191;-74
2022/04/28 05:11:47;;;;;;;0.50;0.50;;;13.20;87.90;;;;;;5010473;28;20621;-74
2022/04/28 05:14:13;;;;;;;0.30;0.30;;;13.20;87.90;;;;;;5011335;28;20189;-73
2022/04/28 05:16:38;;;;;;;0.52;0.50;;;13.20;87.80;;;;;;5009708;28;20208;-73
2022/04/28 05:19:04;;;;;;;0.30;0.30;;;13.10;88.00;;;;;;5005866;28;20216;-73
2022/04/28 05:21:30;;;;;;;0.45;0.45;;;13.00;88.00;;;;;;5005913;28;20185;-73
2022/04/28 05:23:55;;;;;;;0.30;0.30;;;12.90;88.30;;;;;;5007954;28;20189;-73
2022/04/28 05:26:21;;;;;;;0.40;0.40;;;12.80;88.30;;;;;;5010925;28;20702;-73
2022/04/28 05:28:47;;;;;;;0.30;0.30;;;12.80;88.50;;;;;;5016805;28;20592;-73
2022/04/28 05:31:13;;;;;;;0.40;0.40;;;12.70;88.80;;;;;;5011203;28;20180;-75
2022/04/28 05:33:41;;;;;;;0.30;0.30;;;12.80;87.80;;;;;;5012931;28;20963;-73
2022/04/28 05:36:11;;;;;;;4.20;0.40;;;12.70;88.40;;;;;;5011995;28;20687;-74
2022/04/28 05:38:38;;;;;;;0.30;0.30;;;12.70;87.70;;;;;;5016248;28;20308;-73
2022/04/28 05:41:04;;;;;;;0.10;0.10;;;12.70;88.30;;;;;;5012558;28;20189;-76
2022/04/28 05:46:16;;;;;;;0.30;0.30;;;12.60;88.50;;;;;;5007455;28;20298;-72
2022/04/28 05:48:41;;;;;;;0.30;0.30;;;12.60;88.00;;;;;;5005095;28;20667;-71
2022/04/28 05:51:07;;;;;;;1.17;0.25;;;12.60;88.50;;;;;;5012039;28;20197;-73
2022/04/28 05:53:33;;;;;;;2.05;0.30;;;12.50;88.90;;;;;;5010747;28;20188;-73
2022/04/28 05:55:59;;;;;;;1.02;0.30;;;12.50;89.00;;;;;;5010494;28;20191;-72
2022/04/28 05:58:25;;;;;;;0.30;0.30;;;12.50;88.60;;;;;;5004912;28;20484;-73
2022/04/28 06:00:51;;;;;;;0.32;0.20;;;12.60;88.90;;;;;;5017102;28;20224;-72
2022/04/28 06:03:17;;;;;;;0.20;0.20;;;12.50;89.10;;;;;;5012766;28;20643;-72
2022/04/28 06:05:43;;;;;;;0.30;0.30;;;12.30;90.10;;;;;;5014401;28;20616;-73
2022/04/28 06:08:09;;;;;;;0.20;0.20;;;12.40;90.20;;;;;;5010066;28;20188;-73
2022/04/28 06:10:34;;;;;;;0.20;0.20;;;12.20;90.90;;;;;;5011946;28;20682;-72
2022/04/28 06:13:00;;;;;;;0.30;0.30;;;12.00;91.60;;;;;;5011297;28;20211;-72
2022/04/28 06:15:26;;;;;;;0.20;0.20;;;11.90;92.10;;;;;;5009998;28;20729;-73
2022/04/28 06:17:51;;;;;;;0.17;0.17;;;11.90;91.80;;;;;;5012680;28;20276;-73
2022/04/28 06:20:17;;;;;;;0.22;0.22;;;12.00;91.60;;;;;;5013225;28;20180;-73
2022/04/28 06:22:44;;;;;;;0.85;0.40;;;12.00;92.10;;;;;;5008078;28;20179;-73
2022/04/28 06:25:10;;;;;;;0.30;0.30;;;11.90;91.90;;;;;;5010486;28;20181;-73
2022/04/28 06:27:36;;;;;;;0.30;0.30;;;12.00;91.00;;;;;;5014823;28;20259;-72
2022/04/28 06:30:04;;;;;;;0.40;0.40;;;12.10;91.40;;;;;;5011118;28;20180;-73
2022/04/28 06:32:29;;;;;;;1.00;0.30;;;12.00;91.80;;;;;;5007243;28;20180;-72
2022/04/28 06:34:55;;;;;;;0.30;0.30;;;11.90;92.20;;;;;;5011134;28;20243;-72
2022/04/28 06:37:21;;;;;;;0.30;0.30;;;11.90;92.50;;;;;;5011484;28;20176;-73
2022/04/28 06:39:46;;;;;;;0.30;0.30;;;11.90;92.60;;;;;;5007647;28;20698;-73
2022/04/28 06:42:12;;;;;;;0.68;0.40;;;11.90;92.40;;;;;;5013310;28;20730;-72
2022/04/28 06:44:38;;;;;;;1.23;0.40;;;12.00;92.20;;;;;;5007904;28;20196;-74
2022/04/28 06:47:07;;;;;;;4.13;0.50;;;12.00;91.60;;;;;;5005729;28;20187;-72
2022/04/28 06:49:34;;;;;;;0.73;0.30;;;12.00;92.00;;;;;;5013124;28;20188;-73
2022/04/28 06:52:00;;;;;;;1.67;0.30;;;12.10;92.00;;;;;;5005850;28;20184;-74
2022/04/28 06:54:26;;;;;;;0.30;0.30;;;12.00;92.50;;;;;;5007931;28;20195;-73
2022/04/28 06:56:52;;;;;;;0.20;0.20;;;12.00;92.60;;;;;;5007568;28;20180;-73
2022/04/28 06:59:19;;;;;;;0.10;0.10;;;11.90;92.80;;;;;;5009581;28;20212;-73
2022/04/28 07:01:44;;;;;;;0.20;0.20;;;11.70;93.10;;;;;;5022458;28;20303;-73
2022/04/28 07:04:10;;;;;;;0.40;0.40;;;11.80;92.80;;;;;;5018430;28;20188;-74
2022/04/28 07:06:36;;;;;;;0.20;0.20;;;11.90;92.70;;;;;;5007018;28;20173;-72
2022/04/28 07:09:01;;;;;;;0.50;0.50;;;11.80;93.40;;;;;;5013366;28;20184;-73
2022/04/28 07:11:28;;;;;;;0.50;0.50;;;11.70;93.90;;;;;;5015311;28;20315;-73
2022/04/28 07:13:54;;;;;;;0.60;0.60;;;11.70;93.90;;;;;;5016158;28;20188;-73
2022/04/28 07:16:20;;;;;;;8.40;1.15;;;11.70;93.60;;;;;;5019912;28;20190;-73
2022/04/28 07:18:46;;;;;;;3.55;0.88;;;11.80;93.10;;;;;;5011474;28;20975;-73
2022/04/28 07:21:11;;;;;;;0.40;0.40;;;12.00;92.60;;;;;;5012012;28;20264;-73
2022/04/28 07:23:38;;;;;;;0.17;0.17;;;11.90;93.10;;;;;;5011253;28;20180;-72
2022/04/28 07:26:04;;;;;;;0.40;0.40;;;11.80;92.90;;;;;;5012723;28;20187;-73
2022/04/28 07:28:30;;;;;;;0.40;0.40;;;12.00;92.70;;;;;;5017738;28;20237;-73
2022/04/28 07:30:56;;;;;;;0.30;0.30;;;12.10;92.30;;;;;;5008880;28;20177;-73
2022/04/28 07:33:21;;;;;;;0.38;0.38;;;12.00;92.90;;;;;;5009627;28;20655;-73
2022/04/28 07:35:47;;;;;;;0.38;0.38;;;12.00;92.70;;;;;;5011145;28;20659;-73
2022/04/28 07:38:13;;;;;;;0.32;0.32;;;12.10;92.50;;;;;;5008716;28;20266;-73
2022/04/28 07:40:38;;;;;;;2.40;0.47;;;12.10;91.90;;;;;;5009764;28;20269;-73
2022/04/28 07:43:04;;;;;;;0.40;0.40;;;12.30;91.60;;;;;;5005299;28;20643;-72
2022/04/28 07:45:31;;;;;;;0.25;0.25;;;12.40;91.40;;;;;;5007204;28;20268;-72
2022/04/28 07:47:57;;;;;;;0.30;0.30;;;12.40;91.40;;;;;;5013997;28;20874;-73
2022/04/28 07:50:23;;;;;;;0.38;0.38;;;12.50;90.70;;;;;;5017879;28;20181;-73
2022/04/28 07:52:49;;;;;;;0.20;0.20;;;12.60;90.50;;;;;;5007462;28;20216;-72
2022/04/28 07:55:15;;;;;;;0.35;0.30;;;12.50;90.60;;;;;;5018598;28;20172;-72
2022/04/28 07:57:44;;;;;;;0.20;0.20;;;12.50;90.80;;;;;;5018369;28;20330;-73
2022/04/28 08:00:10;;;;;;;0.75;0.32;;;12.50;90.80;;;;;;5015882;28;20213;-74
2022/04/28 08:02:38;;;;;;;0.30;0.30;;;12.40;90.50;;;;;;5013620;28;20185;-73
2022/04/28 08:05:06;;;;;;;0.40;0.28;;;12.50;90.40;;;;;;5015255;28;20208;-73
2022/04/28 08:07:32;;;;;;;0.40;0.40;;;12.50;90.00;;;;;;5046943;28;20679;-73
2022/04/28 08:09:58;;;;;;;0.40;0.40;;;12.60;90.00;;;;;;5015223;28;21467;-73
2022/04/28 08:12:24;;;;;;;0.40;0.40;;;12.50;90.00;;;;;;5014509;28;20192;-73
2022/04/28 08:14:50;;;;;;;0.52;0.52;;;12.60;90.20;;;;;;5012801;28;20185;-73
2022/04/28 08:17:16;;;;;;;0.25;0.25;;;12.70;89.70;;;;;;5016652;28;20647;-74
2022/04/28 08:19:42;;;;;;;0.38;0.38;;;12.60;89.80;;;;;;5009150;28;20212;-73
2022/04/28 08:22:08;;;;;;;0.30;0.30;;;12.60;89.70;;;;;;5012933;28;20265;-74
2022/04/28 08:24:34;;;;;;;0.40;0.40;;;12.70;89.50;;;;;;5012145;28;20184;-73
2022/04/28 08:27:00;;;;;;;0.43;0.43;;;12.80;88.70;;;;;;5015845;28;20187;-74
2022/04/28 08:29:26;;;;;;;0.30;0.30;;;12.70;89.50;;;;;;5015972;28;20202;-73
2022/04/28 08:31:52;;;;;;;0.50;0.50;;;12.80;89.30;;;;;;5013169;28;20189;-74
2022/04/28 08:34:19;;;;;;;0.60;0.60;;;12.90;89.20;;;;;;5013816;28;20189;-73
2022/04/28 08:36:45;;;;;;;0.40;0.40;;;12.90;89.10;;;;;;5043086;28;20187;-73
2022/04/28 08:39:12;;;;;;;0.50;0.50;;;12.80;89.10;;;;;;5011922;28;20296;-73
2022/04/28 08:41:49;;;;;;;2.78;0.45;;;12.80;89.20;;;;;;5013228;28;20184;-73
2022/04/28 08:44:22;;;;;;;0.40;0.40;;;12.90;89.30;;;;;;5011086;28;20288;-73
2022/04/28 08:46:51;;;;;;;1.85;0.52;;;13.00;88.40;;;;;;5012118;28;20261;-73
2022/04/28 08:49:25;;;;;;;1.20;0.40;;;13.10;88.70;;;;;;5015670;28;20188;-72
2022/04/28 08:51:54;;;;;;;0.50;0.50;;;13.20;88.20;;;;;;5011366;28;20176;-73
2022/04/28 08:54:21;;;;;;;0.50;0.50;;;13.20;88.30;;;;;;5006005;28;20601;-72
2022/04/28 08:56:48;;;;;;;0.40;0.40;;;13.30;88.10;;;;;;5006477;28;20228;-72
2022/04/28 08:59:14;;;;;;;0.60;0.60;;;13.30;88.20;;;;;;5009764;28;20215;-73
2022/04/28 09:01:41;;;;;;;0.22;0.22;;;13.20;87.90;;;;;;5009115;28;20173;-75
2022/04/28 09:04:10;;;;;;;0.60;0.60;;;13.20;87.90;;;;;;5015424;28;20176;-73
2022/04/28 09:06:37;;;;;;;5.55;0.40;;;13.20;87.90;;;;;;5012675;28;20681;-73
2022/04/28 09:09:15;;;;;;;0.70;0.50;;;13.30;87.60;;;;;;5008872;28;20192;-74
2022/04/28 09:11:48;;;;;;;0.40;0.40;;;13.40;87.50;;;;;;5037491;28;20192;-74
2022/04/28 09:14:16;;;;;;;0.63;0.50;;;13.50;87.10;;;;;;5014776;28;20201;-74
2022/04/28 09:16:50;;;;;;;0.47;0.45;;;13.50;87.20;;;;;;5009045;28;20249;-74
2022/04/28 09:19:25;;;;;;;1.25;0.57;;;13.50;87.20;;;;;;5011721;28;20216;-74
2022/04/28 09:21:53;;;;;;;0.80;0.80;;;13.60;86.70;;;;;;5004612;28;20242;-74
2022/04/28 09:24:23;;;;;;;0.57;0.57;;;13.60;87.20;;;;;;5017115;28;20895;-74
2022/04/28 09:26:51;;;;;;;0.35;0.35;;;13.60;86.80;;;;;;5016039;28;20185;-74
2022/04/28 09:29:18;;;;;;;0.73;0.73;;;13.60;86.70;;;;;;5011875;28;20855;-74
2022/04/28 09:31:45;;;;;;;2.42;0.65;;;13.60;86.60;;;;;;5046473;28;20224;-74
2022/04/28 09:34:13;;;;;;;2.60;0.57;;;13.70;86.40;;;;;;5016233;28;20800;-73
2022/04/28 09:36:41;;;;;;;0.50;0.50;;;13.80;85.90;;;;;;5014783;28;20211;-73
2022/04/28 09:39:08;;;;;;;0.47;0.47;;;13.90;85.60;;;;;;5014988;28;20220;-72
2022/04/28 09:44:20;;;;;;;3.38;0.70;;;14.00;85.50;;;;;;5007028;28;20695;-71
2022/04/28 09:46:48;;;;;;;2.05;0.60;;;14.10;85.10;;;;;;5013290;28;20820;-72
2022/04/28 09:49:19;;;;;;;0.43;0.43;;;14.30;84.80;;;;;;5013444;28;20245;-74
2022/04/28 09:51:46;;;;;;;0.60;0.60;;;14.30;84.50;;;;;;5024790;28;20189;-74
2022/04/28 09:54:13;;;;;;;0.60;0.60;;;14.30;84.20;;;;;;5009343;28;20184;-75
2022/04/28 09:56:42;;;;;;;0.93;0.73;;;14.40;83.70;;;;;;5015991;28;20225;-73
2022/04/28 09:59:10;;;;;;;1.02;0.60;;;14.50;83.80;;;;;;5011160;28;20263;-73
2022/04/28 10:01:38;;;;;;;0.52;0.45;;;14.60;83.70;;;;;;5007278;28;20293;-73
2022/04/28 10:04:05;;;;;;;0.60;0.60;;;14.70;83.10;;;;;;5008927;28;20181;-73
2022/04/28 10:06:34;;;;;;;1.20;0.80;;;14.70;83.00;;;;;;5009634;28;20272;-73
2022/04/28 10:09:06;;;;;;;1.02;0.70;;;14.90;82.90;;;;;;5009634;28;20188;-73
2022/04/28 10:11:32;;;;;;;2.17;0.65;;;15.00;82.00;;;;;;5012437;28;20180;-73
2022/04/28 10:13:59;;;;;;;1.10;0.70;;;14.90;81.70;;;;;;5014382;28;20204;-73
2022/04/28 10:16:26;;;;;;;0.60;0.57;;;15.00;81.90;;;;;;5006187;28;20193;-73
2022/04/28 10:19:00;;;;;;;2.33;0.90;;;15.00;81.50;;;;;;5009720;28;20375;-74
2022/04/28 10:21:41;;;;;;;0.85;0.85;;;15.00;81.20;;;;;;5013775;28;20640;-73
2022/04/28 10:33:02;;;;;;;0.90;0.90;;;15.10;81.20;;;;;;5012109;28;20187;-74
2022/04/28 10:35:38;;;;;;;1.85;0.70;;;15.10;81.30;;;;;;5013886;28;20262;-73
2022/04/28 10:38:23;;;;;;;0.65;0.65;;;15.20;81.70;;;;;;5007956;28;20189;-73
2022/04/28 10:41:06;;;;;;;5.30;1.10;;;15.30;81.80;;;;;;5010319;28;20662;-74
2022/04/28 10:43:32;;;;;;;0.85;0.85;;;15.40;80.60;;;;;;5012607;28;20230;-73
2022/04/28 10:46:01;;;;;;;3.50;1.17;;;15.40;80.30;;;;;;5010399;28;20708;-74
2022/04/28 10:48:31;;;;;;;1.10;1.10;;;15.40;80.40;;;;;;5004808;28;20212;-73
2022/04/28 10:51:00;;;;;;;0.85;0.85;;;15.40;80.20;;;;;;5011872;28;20658;-73
2022/04/28 10:53:25;;;;;;;1.80;1.02;;;15.40;80.20;;;;;;5006033;28;20571;-73
2022/04/28 10:55:52;;;;;;;1.10;1.10;;;15.30;79.90;;;;;;5010468;28;20177;-73
2022/04/28 10:58:26;;;;;;;0.80;0.80;;;15.30;80.40;;;;;;5006150;28;20213;-73
2022/04/28 11:00:56;;;;;;;3.60;0.98;;;15.20;80.00;;;;;;5004588;28;20194;-74
2022/04/28 11:03:47;;;;;;;1.25;1.02;;;15.20;80.20;;;;;;5010628;28;20253;-72
2022/04/28 11:06:15;;;;;;;1.30;1.17;;;15.30;80.40;;;;;;5014122;28;20625;-73
2022/04/28 11:08:47;;;;;;;0.90;0.90;;;15.30;80.40;;;;;;5047391;28;20188;-74
2022/04/28 11:11:14;;;;;;;1.23;1.23;;;15.40;79.90;;;;;;5008055;28;20468;-74
2022/04/28 11:13:43;;;;;;;3.00;1.10;;;15.40;80.00;;;;;;5014029;28;20263;-74
2022/04/28 11:16:13;;;;;;;1.38;1.27;;;15.50;79.60;;;;;;5002400;28;20258;-74
2022/04/28 11:18:39;;;;;;;0.88;0.88;;;15.60;79.90;;;;;;5003912;28;20209;-74
2022/04/28 11:21:06;;;;;;;0.93;0.93;;;15.70;79.00;;;;;;5006368;28;20212;-74
2022/04/28 11:23:37;;;;;;;1.48;1.17;;;15.80;79.10;;;;;;5011187;28;20264;-73
2022/04/28 11:26:03;;;;;;;0.88;0.88;;;15.90;79.00;;;;;;5008516;28;20185;-73
2022/04/28 11:28:30;;;;;;;2.58;1.40;;;16.00;78.80;;;;;;5011491;28;20189;-74
2022/04/28 11:30:58;;;;;;;1.00;1.00;;;16.00;78.40;;;;;;5014944;28;20250;-74
2022/04/28 11:33:24;;;;;;;1.10;1.10;;;16.00;77.70;;;;;;5012210;28;20176;-73
2022/04/28 11:35:55;;;;;;;0.80;0.80;;;16.00;77.40;;;;;;5002054;28;20188;-73
2022/04/28 11:38:26;;;;;;;1.02;0.90;;;16.00;77.30;;;;;;5011092;28;20212;-73
2022/04/28 11:41:03;;;;;;;4.00;1.20;;;16.00;77.40;;;;;;5009358;28;20233;-73
2022/04/28 11:43:34;;;;;;;2.50;1.50;;;15.80;77.90;;;;;;5008816;28;20936;-73
2022/04/28 11:46:01;;;;;;;1.75;1.65;;;15.80;77.90;;;;;;5041910;28;20273;-74
2022/04/28 11:48:28;;;;;;;1.88;1.67;;;15.80;78.10;;;;;;5014472;28;20624;-74
2022/04/28 11:51:00;;;;;;;1.45;1.33;;;15.80;78.30;;;;;;5013122;28;20184;-74
2022/04/28 11:53:25;;;;;;;1.27;1.27;;;15.80;78.10;;;;;;5015139;28;20196;-73
2022/04/28 11:55:51;;;;;;;1.27;1.27;;;15.80;78.30;;;;;;5009286;28;20181;-74
2022/04/28 11:58:17;;;;;;;3.03;1.20;;;15.90;78.40;;;;;;5012183;28;20209;-74
2022/04/28 12:00:46;;;;;;;1.33;1.33;;;16.00;78.40;;;;;;5004385;28;20188;-74
2022/04/28 12:03:25;;;;;;;1.05;1.05;;;16.10;77.90;;;;;;5014436;28;20964;-74
2022/04/28 12:05:57;;;;;;;1.45;1.40;;;16.30;77.40;;;;;;5009197;28;20198;-75
2022/04/28 12:08:24;;;;;;;1.63;1.63;;;16.40;77.00;;;;;;5011058;28;20203;-76
2022/04/28 12:19:19;;;;;;;1.50;1.50;;;16.50;76.90;;;;;;5013407;28;20272;-74
2022/04/28 12:19:19;;;;;;;1.50;1.48;;;16.40;76.70;;;;;;5010651;28;20208;-74
2022/04/28 12:21:45;;;;;;;1.75;1.58;;;16.20;76.90;;;;;;5009168;28;20287;-75
2022/04/28 12:24:16;;;;;;;1.65;1.50;;;16.30;76.90;;;;;;5008834;28;20197;-74
2022/04/28 12:26:43;;;;;;;1.75;1.70;;;16.30;76.50;;;;;;5013152;28;20191;-75
2022/04/28 12:29:11;;;;;;;1.55;1.45;;;16.30;76.80;;;;;;5007790;28;20518;-74
2022/04/28 12:31:37;;;;;;;1.90;1.80;;;16.30;76.10;;;;;;5010172;28;20185;-74
2022/04/28 12:34:17;;;;;;;1.75;1.23;;;16.30;76.40;;;;;;5009437;28;20204;-74
2022/04/28 12:36:48;;;;;;;1.40;1.30;;;16.20;76.60;;;;;;5006498;28;20181;-74
2022/04/28 12:39:16;;;;;;;5.28;1.73;;;16.20;77.00;;;;;;5005202;28;20251;-73
2022/04/28 12:41:43;;;;;;;4.43;1.63;;;16.20;76.70;;;;;;5010213;28;20790;-74
2022/04/28 12:44:09;;;;;;;1.48;1.38;;;16.20;76.90;;;;;;5007204;28;20188;-74
2022/04/28 12:46:39;;;;;;;1.85;1.75;;;16.20;76.80;;;;;;5009979;28;20193;-74
2022/04/28 12:49:09;;;;;;;2.33;1.40;;;16.20;77.00;;;;;;5012121;28;20254;-74
2022/04/28 12:51:44;;;;;;;2.83;1.25;;;16.20;77.10;;;;;;5019732;28;20188;-77
2022/04/28 12:54:27;;;;;;;2.60;1.33;;;16.20;77.20;;;;;;5017548;28;20722;-76
2022/04/28 12:56:58;;;;;;;6.80;2.00;;;16.20;77.40;;;;;;5009866;28;20925;-77
2022/04/28 12:59:28;;;;;;;5.57;2.05;;;16.30;77.10;;;;;;5012402;28;20216;-75
2022/04/28 13:01:56;;;;;;;1.88;1.70;;;16.20;77.10;;;;;;5006436;28;20236;-77
2022/04/28 13:04:23;;;;;;;1.50;1.40;;;16.20;77.30;;;;;;5010233;28;20334;-77
2022/04/28 13:06:50;;;;;;;1.80;1.70;;;16.20;77.20;;;;;;5006850;28;20447;-77
2022/04/28 13:09:18;;;;;;;1.10;1.10;;;16.10;77.20;;;;;;5012633;28;20184;-76
2022/04/28 13:11:45;;;;;;;1.75;1.65;;;16.10;77.10;;;;;;5016746;28;20252;-77
2022/04/28 13:14:14;;;;;;;2.00;1.90;;;16.00;78.10;;;;;;5017227;28;20180;-77
2022/04/28 13:16:41;;;;;;;3.25;1.52;;;16.00;78.00;;;;;;5042418;28;20270;-76
2022/04/28 13:19:10;;;;;;;1.80;1.70;;;16.00;78.00;;;;;;5011774;28;20279;-77
2022/04/28 13:21:37;;;;;;;1.70;1.60;;;16.10;77.70;;;;;;5011350;28;20177;-76
2022/04/28 13:24:04;;;;;;;1.88;1.48;;;16.00;78.30;;;;;;5006558;28;20181;-75